Time;durP1;ratioP1;P1;durP2;ratioP2;P2;SDS_P1;SDS_P2;PMS_P1;PMS_P2;Temp;Humidity;BMP_temperature;BMP_pressure;BME280_temperature;BME280_humidity;BME280_pressure;Samples;Min_cycle;Max_cycle;Signal;HPM_P1;HPM_P2
2024/01/06 00:00:45;;;;;;;;;4.00;4.00;;;;;21.44;40.90;100688.44;6400399;22;45328;-79
2024/01/06 00:03:11;;;;;;;;;5.00;3.33;;;;;21.42;40.72;100679.84;6399708;22;46326;-79
2024/01/06 00:05:36;;;;;;;;;5.67;3.33;;;;;21.46;40.77;100686.44;6400222;22;45365;-79
2024/01/06 00:08:02;;;;;;;;;4.00;2.00;;;;;21.23;40.55;100665.31;6399534;22;45283;-80
2024/01/06 00:10:27;;;;;;;;;7.33;4.33;;;;;21.34;41.21;100682.56;6371516;22;45439;-79
2024/01/06 00:12:52;;;;;;;;;3.00;3.00;;;;;21.17;40.76;100656.25;6400096;22;45750;-79
2024/01/06 00:15:17;;;;;;;;;4.00;3.00;;;;;;;;6399965;22;45160;-80
2024/01/06 00:17:43;;;;;;;;;5.33;2.67;;;;;21.43;41.21;100694.72;6400350;22;45344;-78
2024/01/06 00:20:08;;;;;;;;;5.33;2.67;;;;;21.18;41.13;100668.50;6400032;22;45181;-79
2024/01/06 00:22:35;;;;;;;;;3.00;3.00;;;;;21.38;41.16;100705.84;6399096;22;46133;-79
2024/01/06 00:25:00;;;;;;;;;4.33;3.00;;;;;21.50;40.77;100716.81;6399314;22;45309;-79
2024/01/06 00:27:25;;;;;;;;;3.00;3.00;;;;;21.34;41.03;100691.31;6400166;22;45250;-79
2024/01/06 00:29:51;;;;;;;;;3.33;3.00;;;;;21.38;40.86;100697.09;6399735;22;45195;-79
2024/01/06 00:32:16;;;;;;;;;4.00;4.00;;;;;21.47;41.00;100709.22;6399693;22;45991;-80
2024/01/06 00:34:41;;;;;;;;;4.00;4.00;;;;;21.32;41.13;100688.03;6399257;22;45876;-79
2024/01/06 00:37:07;;;;;;;;;3.00;3.00;;;;;21.52;40.64;100725.41;6399663;22;45195;-79
2024/01/06 00:39:32;;;;;;;;;4.67;3.67;;;;;21.48;40.92;100721.47;6399679;22;45281;-78
2024/01/06 00:41:58;;;;;;;;;4.00;3.33;;;;;21.48;41.09;100713.53;6399622;22;46126;-79
2024/01/06 00:44:23;;;;;;;;;3.00;3.00;;;;;21.24;40.94;100678.34;6399759;22;45402;-79
2024/01/06 00:46:48;;;;;;;;;4.00;3.00;;;;;21.54;41.09;100721.75;6401425;22;45345;-79
2024/01/06 00:49:13;;;;;;;;;3.67;3.67;;;;;21.49;40.79;100717.81;6401351;22;45428;-79
2024/01/06 00:51:39;;;;;;;;;4.67;3.33;;;;;21.54;41.07;100730.53;6400061;22;47323;-78
2024/01/06 00:54:04;;;;;;;;;2.00;2.00;;;;;21.51;40.71;100715.84;6401050;22;49216;-79
2024/01/06 00:56:29;;;;;;;;;2.67;2.00;;;;;21.36;40.73;100707.03;6400933;22;45326;-79
2024/01/06 00:58:55;;;;;;;;;4.33;3.00;;;;;21.36;40.92;100701.75;6400627;22;45337;-79
2024/01/06 01:01:21;;;;;;;;;2.33;2.33;;;;;21.53;41.04;100728.88;6400362;22;52634;-79
2024/01/06 01:03:46;;;;;;;;;2.00;2.00;;;;;21.35;40.61;100702.72;6400630;22;45479;-79
2024/01/06 01:06:11;;;;;;;;;2.67;2.67;;;;;21.54;41.14;100735.00;6400799;22;45455;-79
2024/01/06 01:08:36;;;;;;;;;2.67;2.67;;;;;21.49;41.09;100731.03;6401102;22;45256;-79
2024/01/06 01:11:02;;;;;;;;;3.00;3.00;;;;;21.43;40.68;100721.19;6400806;22;50671;-79
2024/01/06 01:13:27;;;;;;;;;3.33;2.00;;;;;21.52;41.01;100735.16;6400725;22;45255;-79
2024/01/06 01:15:53;;;;;;;;;2.33;2.33;;;;;21.32;40.67;100703.91;6401319;22;45399;-79
2024/01/06 01:18:18;;;;;;;;;3.67;3.67;;;;;21.39;41.06;100710.13;6372269;22;45468;-79
2024/01/06 01:20:43;;;;;;;;;5.67;3.00;;;;;21.51;41.00;100729.06;6400473;22;45884;-79
2024/01/06 01:23:09;;;;;;;;;4.00;3.00;;;;;21.52;40.91;100736.00;6371939;22;46042;-79
2024/01/06 01:25:34;;;;;;;;;5.00;3.00;;;;;21.33;40.59;100708.22;6400651;22;45311;-79
2024/01/06 01:27:59;;;;;;;;;3.00;3.00;;;;;21.49;40.93;100725.75;6401489;22;45377;-79
2024/01/06 01:30:25;;;;;;;;;4.33;2.67;;;;;21.55;41.12;100742.75;6399376;22;65222;-79
2024/01/06 01:32:50;;;;;;;;;3.67;3.00;;;;;21.43;40.82;100739.72;6401211;22;45259;-79
2024/01/06 01:35:16;;;;;;;;;2.00;2.00;;;;;21.46;41.06;100742.00;6399495;22;56659;-79
2024/01/06 01:37:41;;;;;;;;;3.00;3.00;;;;;21.37;41.08;100737.78;6401130;22;45450;-80
2024/01/06 01:40:07;;;;;;;;;3.00;2.00;;;;;21.53;41.23;100763.28;6400913;22;45992;-80
2024/01/06 01:42:33;;;;;;;;;3.00;3.00;;;;;21.52;40.77;100762.47;6400442;22;45384;-80
2024/01/06 01:44:58;;;;;;;;;4.00;3.00;;;;;21.35;40.59;100737.97;6400934;22;45322;-79
2024/01/06 01:47:24;;;;;;;;;2.00;2.00;;;;;21.38;40.77;100745.56;6401083;22;45347;-80
2024/01/06 01:49:49;;;;;;;;;2.67;2.67;;;;;21.53;40.65;100771.22;6400421;22;46165;-81
2024/01/06 01:52:15;;;;;;;;;3.00;3.00;;;;;21.45;42.06;100777.41;6400533;22;45302;-78
2024/01/06 01:54:42;;;;;;;;;3.00;3.00;;;;;21.19;43.02;100773.31;6401086;22;45245;-79
2024/01/06 01:57:09;;;;;;;;;2.00;2.00;;;;;21.10;43.56;100769.09;6400694;22;45214;-80
2024/01/06 01:59:34;;;;;;;;;5.00;3.33;;;;;21.16;43.83;100769.19;6400084;22;46011;-80
2024/01/06 02:02:02;;;;;;;;;4.00;3.00;;;;;21.32;43.65;100780.66;6400678;22;45226;-80
2024/01/06 02:04:27;;;;;;;;;2.33;2.33;;;;;21.39;43.36;100784.22;6371533;22;45260;-79
2024/01/06 02:06:52;;;;;;;;;2.67;2.67;;;;;;;;6400896;22;45402;-80
2024/01/06 02:09:18;;;;;;;;;2.00;2.00;;;;;21.54;43.51;100793.25;6400630;22;45338;-79
2024/01/06 02:11:43;;;;;;;;;2.33;1.67;;;;;21.60;43.42;100803.09;6400652;22;48913;-81
2024/01/06 02:14:08;;;;;;;;;1.67;1.67;;;;;21.52;42.93;100774.88;6401576;22;45482;-88
2024/01/06 02:16:33;;;;;;;;;2.33;2.33;;;;;21.68;42.59;100800.38;6400719;22;45456;-88
2024/01/06 02:18:59;;;;;;;;;3.67;3.67;;;;;21.73;42.43;100813.09;6400280;22;58325;-87
2024/01/06 02:21:27;;;;;;;;;0.67;0.67;;;;;21.82;42.85;100808.56;6401211;22;45298;-86
2024/01/06 02:23:52;;;;;;;;;2.67;2.67;;;;;21.90;42.46;100821.75;6400543;22;45270;-87
2024/01/06 02:26:18;;;;;;;;;3.00;3.00;;;;;21.94;42.06;100820.38;6400206;22;45390;-87
2024/01/06 02:28:47;;;;;;;;;2.00;1.67;;;;;22.00;42.38;100820.66;6400811;22;46255;-87
2024/01/06 02:31:13;;;;;;;;;2.33;1.67;;;;;21.97;42.11;100805.94;6400613;22;45341;-87
2024/01/06 02:33:38;;;;;;;;;3.67;2.33;;;;;21.94;42.10;100801.00;6400362;22;45289;-87
2024/01/06 02:36:04;;;;;;;;;3.00;2.00;;;;;22.10;41.92;100815.91;6401004;22;45313;-87
2024/01/06 02:38:29;;;;;;;;;2.00;2.00;;;;;22.16;41.33;100822.34;6400290;22;47205;-87
2024/01/06 02:40:54;;;;;;;;;2.00;2.00;;;;;22.21;41.21;100827.09;6400615;22;47435;-88
2024/01/06 02:43:20;;;;;;;;;2.00;2.00;;;;;22.24;41.57;100830.19;6400516;22;56708;-88
2024/01/06 02:45:46;;;;;;;;;2.00;2.00;;;;;22.28;41.60;100830.63;6400167;22;45239;-88
2024/01/06 02:48:11;;;;;;;;;1.67;1.67;;;;;22.29;40.99;100832.31;6399955;22;46006;-88
2024/01/06 02:50:37;;;;;;;;;0.00;0.00;;;;;22.23;41.43;100825.91;6400813;22;45138;-81
2024/01/06 02:53:03;;;;;;;;;2.00;2.00;;;;;22.27;40.89;100824.53;6399959;22;55519;-81
2024/01/06 02:55:28;;;;;;;;;1.67;0.67;;;;;22.38;40.77;100839.16;6400222;22;45372;-81
2024/01/06 02:57:53;;;;;;;;;2.00;1.67;;;;;22.35;40.77;100833.41;6400148;22;49601;-82
2024/01/06 03:00:19;;;;;;;;;3.00;3.00;;;;;22.45;40.99;100843.72;6400068;22;45266;-81
2024/01/06 03:02:44;;;;;;;;;2.67;2.67;;;;;22.36;40.71;100835.88;6399914;22;45748;-81
2024/01/06 03:05:10;;;;;;;;;2.00;1.00;;;;;22.22;40.82;100810.19;6400138;22;45280;-81
2024/01/06 03:07:35;;;;;;;;;1.67;1.67;;;;;22.51;40.87;100856.22;6399316;22;46727;-81
2024/01/06 03:10:01;;;;;;;;;3.33;2.00;;;;;22.54;40.53;100863.00;6400392;22;45281;-81
2024/01/06 03:12:26;;;;;;;;;2.00;2.00;;;;;22.37;40.66;100837.53;6400225;22;46087;-81
2024/01/06 03:14:52;;;;;;;;;2.00;2.00;;;;;22.55;40.35;100854.88;6400195;22;45411;-80
2024/01/06 03:17:18;;;;;;;;;2.00;2.00;;;;;22.58;40.45;100866.94;6399542;22;47018;-80
2024/01/06 03:19:44;;;;;;;;;2.00;2.00;;;;;22.59;40.89;100860.63;6399910;22;45349;-81
2024/01/06 03:22:09;;;;;;;;;3.00;2.00;;;;;22.61;40.36;100861.28;6400788;22;45330;-80
2024/01/06 03:24:34;;;;;;;;;2.00;2.00;;;;;22.62;40.34;100857.59;6400245;22;45449;-80
2024/01/06 03:27:00;;;;;;;;;2.00;2.00;;;;;22.62;40.78;100855.78;6400203;22;45434;-80
2024/01/06 03:29:25;;;;;;;;;1.00;1.00;;;;;22.65;40.79;100853.75;6399657;22;45318;-80
2024/01/06 03:31:50;;;;;;;;;1.00;1.00;;;;;22.38;40.68;100822.41;6370964;22;45240;-80
2024/01/06 03:34:15;;;;;;;;;2.00;2.00;;;;;22.65;40.50;100859.06;6370953;22;52239;-80
2024/01/06 03:36:41;;;;;;;;;3.33;2.00;;;;;22.68;40.39;100862.19;6400491;22;45252;-80
2024/01/06 03:39:07;;;;;;;;;1.00;1.00;;;;;22.70;40.36;100864.69;6400264;22;45329;-80
2024/01/06 03:41:32;;;;;;;;;3.00;2.33;;;;;22.67;40.58;100860.53;6400395;22;45245;-81
2024/01/06 03:43:58;;;;;;;;;2.00;2.00;;;;;22.55;40.15;100841.63;6400287;22;45240;-81
2024/01/06 03:46:24;;;;;;;;;2.67;1.33;;;;;22.72;40.33;100866.13;6399097;22;47149;-80
2024/01/06 03:48:49;;;;;;;;;2.67;2.67;;;;;22.66;40.07;100858.06;6400352;22;45189;-87
2024/01/06 03:51:14;;;;;;;;;2.00;2.00;;;;;22.70;40.04;100869.97;6400353;22;45223;-81
2024/01/06 03:53:42;;;;;;;;;2.67;2.67;;;;;22.66;40.23;100863.38;6400429;22;45407;-81
2024/01/06 03:56:08;;;;;;;;;1.00;1.00;;;;;22.62;39.79;100849.66;6371360;22;46409;-81
2024/01/06 03:58:33;;;;;;;;;3.00;2.00;;;;;22.77;40.01;100876.19;6399999;22;45329;-81
2024/01/06 04:00:59;;;;;;;;;2.00;1.00;;;;;22.78;39.77;100877.00;6399613;22;45301;-81
2024/01/06 04:03:24;;;;;;;;;2.00;2.00;;;;;22.79;39.64;100883.97;6400221;22;45335;-82
2024/01/06 04:05:50;;;;;;;;;2.00;2.00;;;;;22.69;40.28;100863.81;6399967;22;46217;-82
2024/01/06 04:08:15;;;;;;;;;2.67;2.67;;;;;22.72;40.22;100870.63;6400301;22;45290;-81
2024/01/06 04:10:41;;;;;;;;;0.67;0.67;;;;;22.72;40.06;100873.25;6400389;22;45348;-82
2024/01/06 04:13:07;;;;;;;;;2.67;1.00;;;;;22.77;39.62;100878.84;6399770;22;45516;-81
2024/01/06 04:15:32;;;;;;;;;1.33;1.00;;;;;22.64;39.75;100855.59;6398983;22;46259;-81
2024/01/06 04:18:02;;;;;;;;;2.33;2.33;;;;;22.77;39.95;100876.19;6399853;22;45251;-81
2024/01/06 04:20:28;;;;;;;;;0.67;0.67;;;;;22.83;39.54;100885.25;6399648;22;45238;-81
2024/01/06 04:22:53;;;;;;;;;2.00;1.67;;;;;22.83;39.57;100885.25;6399629;22;45236;-81
2024/01/06 04:25:18;;;;;;;;;1.67;1.67;;;;;22.70;40.11;100865.50;6398690;22;57667;-82
2024/01/06 04:27:46;;;;;;;;;2.00;2.00;;;;;22.83;39.46;100891.38;6399426;22;53367;-82
2024/01/06 04:30:12;;;;;;;;;1.67;1.67;;;;;22.76;39.72;100874.56;6399794;22;45424;-80
2024/01/06 04:32:37;;;;;;;;;1.67;1.00;;;;;22.73;39.56;100885.53;6399920;22;45254;-80
2024/01/06 04:35:02;;;;;;;;;2.67;1.00;;;;;22.77;39.78;100888.66;6398521;22;68694;-79
2024/01/06 04:37:28;;;;;;;;;1.00;1.00;;;;;22.86;39.47;100906.09;6399242;22;45278;-79
2024/01/06 04:39:53;;;;;;;;;2.00;1.00;;;;;22.85;39.59;100901.78;6399694;22;45280;-79
2024/01/06 04:42:19;;;;;;;;;4.00;2.00;;;;;22.81;39.44;100900.53;6399851;22;45337;-79
2024/01/06 04:44:44;;;;;;;;;2.67;1.67;;;;;22.67;39.59;100878.25;6398694;22;47099;-79
2024/01/06 04:47:10;;;;;;;;;1.00;1.00;;;;;22.85;39.45;100905.28;6399553;22;45277;-79
2024/01/06 04:49:35;;;;;;;;;6.00;2.00;;;;;22.87;39.68;100910.41;6399796;22;45250;-79
2024/01/06 04:52:00;;;;;;;;;2.00;1.00;;;;;22.86;39.36;100906.09;6398905;22;52070;-79
2024/01/06 04:54:26;;;;;;;;;2.33;2.33;;;;;22.83;39.54;100906.47;6399401;22;45338;-82
2024/01/06 04:56:51;;;;;;;;;1.00;1.00;;;;;22.87;39.36;100913.06;6399678;22;46692;-82
2024/01/06 04:59:16;;;;;;;;;3.33;3.33;;;;;22.80;39.78;100902.34;6370534;22;45239;-81
2024/01/06 05:01:41;;;;;;;;;2.33;2.33;;;;;22.71;39.29;100898.16;6399451;22;47232;-81
2024/01/06 05:04:07;;;;;;;;;1.00;1.00;;;;;22.87;39.36;100915.72;6398997;22;47132;-81
2024/01/06 05:06:32;;;;;;;;;2.00;2.00;;;;;22.86;39.66;100922.03;6399429;22;45289;-80
2024/01/06 05:08:57;;;;;;;;;1.33;1.33;;;;;22.87;39.50;100918.38;6399232;22;50966;-80
2024/01/06 05:11:23;;;;;;;;;1.00;1.00;;;;;22.88;39.78;100927.13;6399147;22;45451;-79
2024/01/06 05:13:48;;;;;;;;;1.00;1.00;;;;;22.88;39.62;100932.44;6398990;22;46901;-80
2024/01/06 05:16:13;;;;;;;;;2.00;2.00;;;;;22.79;39.72;100921.94;6399410;22;45314;-80
2024/01/06 05:18:39;;;;;;;;;1.00;1.00;;;;;22.83;39.20;100927.69;6398990;22;47530;-80
2024/01/06 05:21:04;;;;;;;;;1.67;1.67;;;;;22.76;39.54;100921.47;6399220;22;45518;-80
2024/01/06 05:23:29;;;;;;;;;2.00;2.00;;;;;22.83;39.73;100939.13;6399269;22;46358;-80
2024/01/06 05:25:55;;;;;;;;;1.00;1.00;;;;;22.89;39.43;100945.53;6398776;22;52610;-80
2024/01/06 05:28:20;;;;;;;;;1.00;1.00;;;;;22.90;39.58;100949.00;6398679;22;47481;-80
2024/01/06 05:30:45;;;;;;;;;3.00;2.00;;;;;22.78;39.39;100932.72;6399628;22;45310;-79
2024/01/06 05:33:13;;;;;;;;;0.33;0.33;;;;;22.77;39.19;100929.25;6400334;22;46885;-80
2024/01/06 05:35:39;;;;;;;;;2.33;2.00;;;;;22.90;39.09;100959.63;6400260;22;45239;-84
2024/01/06 05:38:04;;;;;;;;;0.00;0.00;;;;;22.91;39.48;100958.59;6400773;22;45214;-79
2024/01/06 05:40:29;;;;;;;;;0.67;0.67;;;;;22.76;39.57;100938.22;6400784;22;45369;-80
2024/01/06 05:42:56;;;;;;;;;2.67;1.33;;;;;22.91;39.35;100961.25;6400719;22;51339;-84
2024/01/06 05:45:22;;;;;;;;;0.00;0.00;;;;;22.79;39.10;100942.34;6400560;22;45266;-84
2024/01/06 05:47:47;;;;;;;;;0.33;0.33;;;;;22.92;39.27;100970.88;6401004;22;45256;-85
2024/01/06 05:50:15;;;;;;;;;1.00;0.67;;;;;22.92;39.60;100970.88;6372172;22;45438;-85
2024/01/06 05:52:41;;;;;;;;;1.33;1.33;;;;;22.81;38.99;100953.56;6400889;22;45326;-84
2024/01/06 05:55:07;;;;;;;;;2.00;0.67;;;;;22.91;39.14;100978.00;6400379;22;45350;-84
2024/01/06 05:57:32;;;;;;;;;1.00;1.00;;;;;22.92;39.17;100977.00;6401301;22;45393;-85
2024/01/06 05:59:57;;;;;;;;;0.33;0.33;;;;;22.81;39.32;100961.53;6400884;22;45358;-84
2024/01/06 06:02:22;;;;;;;;;1.33;1.33;;;;;22.79;38.95;100966.22;6400713;22;46628;-84
2024/01/06 06:04:48;;;;;;;;;0.67;0.67;;;;;22.92;39.18;100982.31;6400370;22;45319;-85
2024/01/06 06:07:14;;;;;;;;;1.67;0.67;;;;;22.93;39.51;100983.94;6400623;22;45286;-84
2024/01/06 06:09:40;;;;;;;;;1.67;1.67;;;;;22.82;39.12;100971.16;6400035;22;45501;-85
2024/01/06 06:12:05;;;;;;;;;0.67;0.67;;;;;22.93;39.13;100991.06;6400207;22;47290;-84
2024/01/06 06:14:31;;;;;;;;;0.67;0.67;;;;;22.93;39.32;101002.53;6400301;22;45271;-84
2024/01/06 06:16:56;;;;;;;;;1.00;1.00;;;;;22.84;38.92;100985.88;6400960;22;45454;-83
2024/01/06 06:19:22;;;;;;;;;0.67;0.67;;;;;22.81;39.29;100983.59;6400532;22;45452;-83
2024/01/06 06:21:47;;;;;;;;;0.00;0.00;;;;;22.93;39.22;101009.66;6400112;22;50327;-82
2024/01/06 06:24:13;;;;;;;;;0.67;0.67;;;;;22.85;38.89;100994.63;6400321;22;45271;-79
2024/01/06 06:26:38;;;;;;;;;2.00;0.67;;;;;22.92;39.24;101016.81;6400429;22;45303;-81
2024/01/06 06:29:04;;;;;;;;;1.00;1.00;;;;;22.93;39.07;101014.94;6400694;22;45275;-81
2024/01/06 06:31:29;;;;;;;;;1.00;1.00;;;;;22.90;38.98;101018.00;6400092;22;58122;-81
2024/01/06 06:33:54;;;;;;;;;0.00;0.00;;;;;22.92;39.41;101032.72;6400704;22;45298;-81
2024/01/06 06:36:20;;;;;;;;;1.00;1.00;;;;;22.93;39.40;101028.22;6399932;22;45205;-81
2024/01/06 06:38:45;;;;;;;;;0.67;0.67;;;;;22.85;38.99;101021.16;6400384;22;45182;-80
2024/01/06 06:41:11;;;;;;;;;0.67;0.67;;;;;22.85;38.79;101023.81;6400531;22;45389;-81
2024/01/06 06:43:36;;;;;;;;;1.00;1.00;;;;;22.94;39.25;101043.16;6400478;22;45274;-80
2024/01/06 06:46:02;;;;;;;;;0.67;0.67;;;;;22.80;38.92;101020.88;6400753;22;45280;-81
2024/01/06 06:48:27;;;;;;;;;1.33;0.00;;;;;22.80;39.32;101016.41;6400458;22;45236;-80
2024/01/06 06:50:53;;;;;;;;;0.00;0.00;;;;;22.83;38.92;101031.13;6400371;22;45306;-80
2024/01/06 06:53:18;;;;;;;;;0.00;0.00;;;;;22.95;38.78;101048.25;6371260;22;46045;-80
2024/01/06 06:55:43;;;;;;;;;0.00;0.00;;;;;22.82;39.00;101024.22;6400678;22;45331;-79
2024/01/06 06:58:09;;;;;;;;;3.00;0.67;;;;;22.86;38.75;101038.75;6400139;22;45178;-80
2024/01/06 07:00:35;;;;;;;;;0.67;0.67;;;;;22.96;39.16;101057.03;6400355;22;45244;-82
2024/01/06 07:03:00;;;;;;;;;0.67;0.67;;;;;22.97;38.86;101066.66;6400116;22;45268;-82
2024/01/06 07:05:26;;;;;;;;;0.33;0.33;;;;;22.98;38.62;101065.66;6400151;22;45205;-80
2024/01/06 07:07:51;;;;;;;;;0.00;0.00;;;;;22.94;38.70;101065.19;6399947;22;52244;-80
2024/01/06 07:10:17;;;;;;;;;1.00;1.00;;;;;23.00;39.16;101074.28;6400015;22;46054;-80
2024/01/06 07:12:42;;;;;;;;;1.00;1.00;;;;;23.01;39.03;101077.72;6399953;22;45294;-81
2024/01/06 07:15:11;;;;;;;;;0.00;0.00;;;;;22.93;38.58;101073.31;6400688;22;45410;-81
2024/01/06 07:17:38;;;;;;;;;1.00;1.00;;;;;23.01;38.73;101089.16;6399318;22;45460;-80
2024/01/06 07:20:07;;;;;;;;;1.00;1.00;;;;;22.95;38.82;101088.06;6399813;22;46184;-81
2024/01/06 07:22:34;;;;;;;;;0.00;0.00;;;;;23.03;38.71;101100.41;6399273;22;45287;-81
2024/01/06 07:25:00;;;;;;;;;0.67;0.67;;;;;22.93;38.83;101082.13;6399852;22;45275;-81
2024/01/06 07:27:26;;;;;;;;;1.67;0.00;;;;;23.04;38.54;101102.09;6399929;22;45425;-81
2024/01/06 07:29:52;;;;;;;;;0.67;0.00;;;;;22.89;38.85;101080.84;6399693;22;47038;-81
2024/01/06 07:32:17;;;;;;;;;0.00;0.00;;;;;23.01;39.12;101094.47;6400472;22;45183;-80
2024/01/06 07:34:43;;;;;;;;;0.67;0.67;;;;;23.06;38.62;101108.03;6400033;22;45734;-80
2024/01/06 07:37:08;;;;;;;;;0.67;0.67;;;;;22.86;38.72;101078.53;6399579;22;45529;-80
2024/01/06 07:39:34;;;;;;;;;1.00;1.00;;;;;22.95;38.56;101090.72;6399580;22;46924;-80
2024/01/06 07:41:59;;;;;;;;;1.33;0.00;;;;;22.96;38.58;101092.38;6400070;22;51554;-80
2024/01/06 07:44:24;;;;;;;;;0.00;0.00;;;;;23.00;38.54;101103.47;6400401;22;45327;-78
2024/01/06 07:46:51;;;;;;;;;1.00;1.00;;;;;23.03;38.51;101103.06;6400416;22;45381;-79
2024/01/06 07:49:16;;;;;;;;;0.00;0.00;;;;;23.05;38.92;101114.34;6399862;22;47014;-86
2024/01/06 07:51:41;;;;;;;;;0.00;0.00;;;;;23.12;38.83;101119.75;6400040;22;45220;-84
2024/01/06 07:54:08;;;;;;;;;1.33;1.00;;;;;23.12;38.60;101122.41;6399738;22;45521;-84
2024/01/06 07:56:34;;;;;;;;;0.00;0.00;;;;;23.08;38.71;101107.88;6400645;22;45893;-84
2024/01/06 07:58:59;;;;;;;;;0.67;0.67;;;;;22.94;38.83;101088.25;6399698;22;47017;-87
2024/01/06 08:01:24;;;;;;;;;1.00;1.00;;;;;22.95;38.85;101090.72;6399364;22;63871;-86
2024/01/06 08:03:50;;;;;;;;;1.00;1.00;;;;;23.09;39.27;101113.97;6400212;22;45259;-86
2024/01/06 08:06:15;;;;;;;;;2.00;0.33;;;;;23.04;38.79;101109.22;6399936;22;45350;-83
2024/01/06 08:08:41;;;;;;;;;2.00;0.67;;;;;23.13;38.87;101141.81;6399871;22;46803;-83
2024/01/06 08:11:06;;;;;;;;;0.67;0.67;;;;;23.12;38.89;101148.13;6399792;22;45367;-83
2024/01/06 08:13:31;;;;;;;;;0.00;0.00;;;;;23.06;38.92;101145.19;6399757;22;45221;-83
2024/01/06 08:15:57;;;;;;;;;0.00;0.00;;;;;22.93;39.14;101129.88;6399899;22;45398;-83
2024/01/06 08:18:22;;;;;;;;;1.00;1.00;;;;;23.07;39.33;101154.81;6371757;22;45871;-83
2024/01/06 08:20:47;;;;;;;;;0.67;0.67;;;;;23.11;39.26;101163.22;6399403;22;45363;-83
2024/01/06 08:23:13;;;;;;;;;0.67;0.67;;;;;23.08;38.88;101163.59;6400226;22;45351;-83
2024/01/06 08:25:38;;;;;;;;;0.67;0.00;;;;;23.11;39.38;101173.03;6399523;22;45433;-83
2024/01/06 08:28:04;;;;;;;;;1.00;1.00;;;;;23.11;39.08;101181.00;6400030;22;45194;-83
2024/01/06 08:30:29;;;;;;;;;0.33;0.00;;;;;23.09;38.93;101178.50;6399464;22;45300;-83
2024/01/06 08:32:54;;;;;;;;;2.00;0.00;;;;;23.06;38.79;101185.00;6399795;22;45206;-83
2024/01/06 08:35:20;;;;;;;;;3.00;1.00;;;;;23.03;38.77;101174.72;6399075;22;45367;-83
2024/01/06 08:37:45;;;;;;;;;0.00;0.00;;;;;22.93;39.09;101160.88;6399991;22;45260;-82
2024/01/06 08:40:11;;;;;;;;;0.67;0.00;;;;;23.08;39.08;101192.78;6399674;22;45174;-83
2024/01/06 08:42:37;;;;;;;;;1.00;1.00;;;;;22.95;39.23;101170.31;6400019;22;45291;-79
2024/01/06 08:45:03;;;;;;;;;0.67;0.67;;;;;23.07;39.40;101191.13;6399132;22;45350;-80
2024/01/06 08:47:28;;;;;;;;;0.00;0.00;;;;;23.06;38.71;101195.59;6399787;22;45409;-80
2024/01/06 08:49:53;;;;;;;;;0.00;0.00;;;;;23.07;39.14;101202.56;6398903;22;45245;-78
2024/01/06 08:52:19;;;;;;;;;0.33;0.33;;;;;23.06;39.45;101202.72;6399495;22;45275;-78
2024/01/06 08:54:44;;;;;;;;;0.00;0.00;;;;;22.94;38.99;101189.91;6399962;22;45378;-82
2024/01/06 08:57:09;;;;;;;;;0.00;0.00;;;;;22.90;39.30;101182.50;6399623;22;45252;-80
2024/01/06 08:59:35;;;;;;;;;0.00;0.00;;;;;22.84;39.35;101174.22;6399606;22;45311;-81
2024/01/06 09:02:01;;;;;;;;;0.00;0.00;;;;;22.76;38.89;101157.53;6399424;22;45264;-80
2024/01/06 09:04:26;;;;;;;;;0.33;0.33;;;;;23.05;39.14;101215.19;6398530;22;45414;-79
2024/01/06 09:06:51;;;;;;;;;0.67;0.67;;;;;23.01;38.86;101205.09;6400344;22;45219;-80
2024/01/06 09:09:17;;;;;;;;;1.00;1.00;;;;;23.02;39.01;101209.41;6400713;22;45358;-78
2024/01/06 09:11:44;;;;;;;;;0.33;0.33;;;;;23.03;39.11;101217.19;6400699;22;45152;-79
2024/01/06 09:14:10;;;;;;;;;3.00;1.00;;;;;23.06;39.34;101230.09;6400596;22;45384;-79
2024/01/06 09:16:35;;;;;;;;;0.67;0.33;;;;;23.06;39.58;101230.09;6400194;22;46334;-80
2024/01/06 09:19:01;;;;;;;;;0.33;0.33;;;;;23.06;39.24;101235.41;6399843;22;45192;-80
2024/01/06 09:21:27;;;;;;;;;0.00;0.00;;;;;23.06;39.39;101240.72;6401142;22;45227;-79
2024/01/06 09:23:52;;;;;;;;;0.67;0.67;;;;;23.03;39.38;101229.66;6372049;22;45442;-79
2024/01/06 09:26:17;;;;;;;;;1.00;1.00;;;;;23.08;39.39;101240.56;6400946;22;46186;-80
2024/01/06 09:28:43;;;;;;;;;0.33;0.33;;;;;23.06;39.68;101239.88;6400518;22;45245;-79
2024/01/06 09:31:08;;;;;;;;;0.00;0.00;;;;;23.10;39.20;101251.00;6401387;22;45361;-79
2024/01/06 09:33:34;;;;;;;;;1.00;1.00;;;;;23.09;39.31;101255.47;6400951;22;45287;-81
2024/01/06 09:35:59;;;;;;;;;0.00;0.00;;;;;23.07;39.61;101255.66;6400246;22;45433;-81
2024/01/06 09:38:25;;;;;;;;;1.67;0.00;;;;;23.05;39.29;101254.19;6400581;22;45327;-81
2024/01/06 09:40:52;;;;;;;;;0.67;0.67;;;;;23.03;39.41;101249.03;6400900;22;45264;-82
2024/01/06 09:43:18;;;;;;;;;3.00;1.33;;;;;23.10;39.60;101267.75;6401759;22;45290;-81
2024/01/06 09:45:57;;;;;;;;;0.00;0.00;;;;;23.06;39.48;101269.91;6400464;22;46058;-79
2024/01/06 09:48:28;;;;;;;;;1.33;0.00;;;;;23.05;39.55;101268.28;6400150;22;45271;-87
2024/01/06 09:50:56;;;;;;;;;0.33;0.33;;;;;23.03;39.08;101266.81;6400577;22;45505;-76
2024/01/06 09:53:26;;;;;;;;;0.67;0.67;;;;;23.01;39.05;101263.47;6400415;22;45349;-77
2024/01/06 09:55:52;;;;;;;;;3.00;1.00;;;;;23.05;39.34;101270.94;6400019;22;47212;-77
2024/01/06 09:58:17;;;;;;;;;0.00;0.00;;;;;23.10;39.43;101286.31;6400600;22;45231;-77
2024/01/06 10:00:42;;;;;;;;;1.00;1.00;;;;;22.99;39.51;101276.94;6400480;22;45610;-77
2024/01/06 10:03:08;;;;;;;;;1.00;1.00;;;;;23.05;39.29;101286.84;6400003;22;45148;-76
2024/01/06 10:05:33;;;;;;;;;1.00;1.00;;;;;23.06;39.51;101290.31;6401068;22;45302;-77
2024/01/06 10:07:59;;;;;;;;;4.00;1.67;;;;;23.05;39.24;101297.47;6401238;22;46305;-79
2024/01/06 10:10:24;;;;;;;;;2.00;1.00;;;;;22.99;38.83;101298.16;6401123;22;45192;-79
2024/01/06 10:12:53;;;;;;;;;2.33;1.33;;;;;22.95;38.56;101307.50;6401009;22;45463;-81
2024/01/06 10:15:19;;;;;;;;;0.67;0.67;;;;;22.85;37.96;101303.22;6401579;22;47201;-84
2024/01/06 10:17:45;;;;;;;;;0.33;0.33;;;;;22.59;37.39;101276.97;6401005;22;45405;-79
2024/01/06 10:20:12;;;;;;;;;2.67;1.67;;;;;22.70;37.67;101303.13;6402074;22;45403;-78
2024/01/06 10:22:39;;;;;;;;;1.33;0.67;;;;;22.64;37.46;101295.81;6400791;22;45288;-76
2024/01/06 10:25:07;;;;;;;;;0.67;0.67;;;;;22.62;37.64;101297.84;6400347;22;45241;-82
2024/01/06 10:27:37;;;;;;;;;1.00;0.67;;;;;22.62;37.64;101303.13;6402028;22;45644;-82
2024/01/06 10:30:02;;;;;;;;;1.33;0.67;;;;;22.73;37.47;101326.66;6401652;22;45283;-84
2024/01/06 10:32:31;;;;;;;;;0.67;0.67;;;;;22.66;36.99;101314.22;6401207;22;45173;-80
2024/01/06 10:34:57;;;;;;;;;0.33;0.33;;;;;22.66;37.28;101311.59;6401611;22;46179;-78
2024/01/06 10:37:24;;;;;;;;;1.67;0.67;;;;;22.74;37.52;101330.16;6399780;22;45522;-76
2024/01/06 10:40:06;;;;;;;;;0.00;0.00;;;;;22.71;37.23;101325.19;6400850;22;45431;-76
2024/01/06 10:42:32;;;;;;;;;1.00;1.00;;;;;22.60;37.01;101315.75;6399809;22;45481;-77
2024/01/06 10:44:58;;;;;;;;;2.67;1.00;;;;;22.54;37.13;101340.28;6398383;22;46080;-77
2024/01/06 10:47:26;;;;;;;;;1.00;1.00;;;;;22.35;37.25;101337.88;6399870;22;45537;-81
2024/01/06 10:49:54;;;;;;;;;1.67;1.33;;;;;22.16;37.48;101325.84;6399925;22;45353;-81
2024/01/06 10:52:20;;;;;;;;;1.00;1.00;;;;;22.00;38.12;101326.69;6400529;22;45371;-80
2024/01/06 10:54:50;;;;;;;;;1.00;0.00;;;;;21.85;38.62;101312.28;6399800;22;45995;-81
2024/01/06 10:57:17;;;;;;;;;0.67;0.00;;;;;21.79;38.34;101320.91;6400113;22;45335;-83
2024/01/06 10:59:43;;;;;;;;;0.67;0.67;;;;;21.81;38.82;101339.25;6399795;22;45262;-76
2024/01/06 11:02:12;;;;;;;;;0.67;0.67;;;;;21.51;38.62;101300.91;6400669;22;45218;-76
2024/01/06 11:04:37;;;;;;;;;0.00;0.00;;;;;21.65;39.12;101334.81;6400114;22;45718;-82
2024/01/06 11:07:04;;;;;;;;;0.00;0.00;;;;;21.64;39.25;101339.28;6399712;22;45326;-76
2024/01/06 11:09:37;;;;;;;;;3.00;0.33;;;;;21.27;39.66;101291.09;6400448;22;45379;-76
2024/01/06 11:12:02;;;;;;;;;3.00;1.00;;;;;21.56;39.59;101334.81;6399775;22;45569;-77
2024/01/06 11:14:28;;;;;;;;;1.00;1.00;;;;;21.55;39.56;101342.91;6399135;22;46264;-77
2024/01/06 11:16:54;;;;;;;;;1.00;1.00;;;;;21.37;40.21;101314.75;6398734;22;45368;-79
2024/01/06 11:19:35;;;;;;;;;0.00;0.00;;;;;21.50;40.37;101343.41;6399588;22;45409;-78